createdAt,value
2018-07-20T00:00:00.549Z,26.70
2018-07-20T00:02:28.987Z,26.70
2018-07-20T00:04:57.426Z,26.70
2018-07-20T00:07:25.869Z,26.70
2018-07-20T00:09:54.297Z,26.70
2018-07-20T00:12:22.757Z,26.70
2018-07-20T00:14:51.323Z,26.70
2018-07-20T00:17:19.754Z,26.70
2018-07-20T00:19:47.989Z,26.70
2018-07-20T00:22:16.445Z,26.70
2018-07-20T00:24:44.858Z,26.70
2018-07-20T00:27:14.235Z,26.60
2018-07-20T00:29:43.977Z,26.60
2018-07-20T00:32:12.981Z,26.60
2018-07-20T00:34:42.124Z,26.60
2018-07-20T00:37:10.553Z,26.60
2018-07-20T00:39:38.986Z,26.60
2018-07-20T00:42:07.641Z,26.60
2018-07-20T00:44:36.081Z,26.60
2018-07-20T00:47:04.521Z,26.60
2018-07-20T00:49:33.021Z,26.60
2018-07-20T00:52:01.459Z,26.60
2018-07-20T00:54:30.001Z,26.60
2018-07-20T00:56:58.426Z,26.60
2018-07-20T00:59:26.863Z,26.60
2018-07-20T01:01:55.346Z,26.60
2018-07-20T01:04:23.791Z,26.60
2018-07-20T01:06:52.411Z,26.60
2018-07-20T01:09:20.846Z,26.60
2018-07-20T01:11:49.290Z,26.60
2018-07-20T01:14:17.721Z,26.60
2018-07-20T01:16:46.200Z,26.60
2018-07-20T01:19:14.625Z,26.60
2018-07-20T01:21:43.778Z,26.60
2018-07-20T01:24:13.137Z,26.50
2018-07-20T01:26:42.099Z,26.60
2018-07-20T01:29:10.532Z,26.50
2018-07-20T01:31:38.977Z,26.50
2018-07-20T01:34:07.449Z,26.60
2018-07-20T01:36:35.897Z,26.50
2018-07-20T01:39:05.815Z,26.50
2018-07-20T01:41:34.260Z,26.50
2018-07-20T01:44:02.721Z,26.50
2018-07-20T01:46:31.165Z,26.50
2018-07-20T01:48:59.764Z,26.50
2018-07-20T01:51:28.199Z,26.50
2018-07-20T01:53:56.618Z,26.50
2018-07-20T01:56:25.074Z,26.50
2018-07-20T01:58:53.650Z,26.50
2018-07-20T02:01:22.081Z,26.50
2018-07-20T02:03:50.522Z,26.50
2018-07-20T02:06:19.006Z,26.50
2018-07-20T02:08:47.501Z,26.50
2018-07-20T02:11:15.924Z,26.50
2018-07-20T02:13:45.750Z,26.50
2018-07-20T02:16:14.261Z,26.50
2018-07-20T02:18:43.739Z,26.40
2018-07-20T02:21:13.209Z,26.40
2018-07-20T02:23:42.069Z,26.40
2018-07-20T02:26:10.481Z,26.50
2018-07-20T02:28:38.661Z,26.40
2018-07-20T02:31:07.432Z,26.50
2018-07-20T02:33:35.871Z,26.50
2018-07-20T02:36:04.361Z,26.40
2018-07-20T02:38:32.797Z,26.40
2018-07-20T02:41:01.281Z,26.40
2018-07-20T02:43:29.785Z,26.40
2018-07-20T02:45:58.225Z,26.40
2018-07-20T02:48:26.638Z,26.40
2018-07-20T02:50:55.080Z,26.40
2018-07-20T02:53:23.510Z,26.40
2018-07-20T02:55:52.039Z,26.40
2018-07-20T02:58:20.446Z,26.40
2018-07-20T03:00:48.876Z,26.40
2018-07-20T03:03:17.289Z,26.40
2018-07-20T03:05:45.729Z,26.30
2018-07-20T03:08:15.256Z,26.30
2018-07-20T03:10:44.502Z,26.40
2018-07-20T03:13:13.024Z,26.30
2018-07-20T03:15:42.491Z,26.30
2018-07-20T03:18:10.916Z,26.40
2018-07-20T03:20:39.334Z,26.30
2018-07-20T03:23:07.768Z,26.30
2018-07-20T03:25:36.194Z,26.40
2018-07-20T03:28:04.626Z,26.30
2018-07-20T03:30:33.059Z,26.30
2018-07-20T03:33:01.686Z,26.30
2018-07-20T03:35:30.204Z,26.30
2018-07-20T03:37:58.685Z,26.30
2018-07-20T03:40:27.119Z,26.30
2018-07-20T03:42:55.614Z,26.30
2018-07-20T03:45:24.030Z,26.30
2018-07-20T03:47:52.473Z,26.30
2018-07-20T03:50:20.914Z,26.30
2018-07-20T03:52:49.349Z,26.30
2018-07-20T03:55:17.786Z,26.30
2018-07-20T03:57:46.226Z,26.30
2018-07-20T04:00:14.678Z,26.30
2018-07-20T04:02:46.893Z,26.30
2018-07-20T04:05:15.857Z,26.30
2018-07-20T04:07:44.721Z,26.30
2018-07-20T04:10:14.164Z,26.30
2018-07-20T04:12:43.305Z,26.30
2018-07-20T04:15:12.216Z,26.30
2018-07-20T04:17:43.485Z,26.20
2018-07-20T04:20:13.849Z,26.30
2018-07-20T04:22:43.365Z,26.30
2018-07-20T04:25:12.379Z,26.30
2018-07-20T04:27:40.838Z,26.30
2018-07-20T04:30:12.922Z,26.30
2018-07-20T04:32:42.138Z,26.20
2018-07-20T04:35:11.212Z,26.20
2018-07-20T04:37:39.509Z,26.30
2018-07-20T04:40:08.075Z,26.20
2018-07-20T04:42:36.955Z,26.20
2018-07-20T04:45:05.649Z,26.30
2018-07-20T04:47:34.275Z,26.20
2018-07-20T04:50:02.756Z,26.20
2018-07-20T04:52:31.167Z,26.20
2018-07-20T04:54:59.609Z,26.20
2018-07-20T04:57:28.045Z,26.20
2018-07-20T04:59:56.728Z,26.20
2018-07-20T05:02:25.465Z,26.30
2018-07-20T05:04:54.011Z,26.30
2018-07-20T05:07:22.558Z,26.20
2018-07-20T05:09:52.020Z,26.30
2018-07-20T05:12:20.462Z,26.30
2018-07-20T05:14:49.022Z,26.30
2018-07-20T05:17:17.651Z,26.30
2018-07-20T05:19:46.067Z,26.30
2018-07-20T05:22:15.162Z,26.30
2018-07-20T05:24:44.225Z,26.30
2018-07-20T05:27:13.352Z,26.30
2018-07-20T05:29:42.386Z,26.30
2018-07-20T05:32:12.048Z,26.40
2018-07-20T05:34:40.461Z,26.40
2018-07-20T05:37:08.869Z,26.40
2018-07-20T05:39:37.272Z,26.40
2018-07-20T05:42:05.861Z,26.40
2018-07-20T05:44:34.277Z,26.40
2018-07-20T05:47:02.730Z,26.40
2018-07-20T05:49:31.142Z,26.50
2018-07-20T05:51:59.583Z,26.50
2018-07-20T05:54:28.011Z,26.50
2018-07-20T05:56:56.451Z,26.50
2018-07-20T05:59:24.861Z,26.50
2018-07-20T06:01:53.289Z,26.50
2018-07-20T06:04:21.794Z,26.60
2018-07-20T06:06:50.202Z,26.60
2018-07-20T06:09:18.802Z,26.60
2018-07-20T06:11:47.222Z,26.60
2018-07-20T06:14:15.734Z,26.60
2018-07-20T06:16:45.120Z,26.60
2018-07-20T06:19:13.681Z,26.60
2018-07-20T06:21:42.196Z,26.70
2018-07-20T06:24:10.632Z,26.60
2018-07-20T06:26:39.071Z,26.70
2018-07-20T06:29:07.520Z,26.70
2018-07-20T06:31:35.959Z,26.70
2018-07-20T06:34:04.397Z,26.70
2018-07-20T06:36:32.833Z,26.80
2018-07-20T06:39:01.272Z,26.70
2018-07-20T06:41:29.697Z,26.80
2018-07-20T06:43:58.397Z,26.80
2018-07-20T06:46:26.815Z,26.80
2018-07-20T06:48:55.245Z,26.80
2018-07-20T06:51:23.664Z,26.90
2018-07-20T06:53:52.089Z,26.90
2018-07-20T06:56:20.527Z,26.90
2018-07-20T06:58:49.114Z,26.90
2018-07-20T07:01:17.693Z,27.00
2018-07-20T07:03:46.182Z,27.00
2018-07-20T07:06:14.680Z,27.00
2018-07-20T07:08:43.865Z,27.10
2018-07-20T07:11:13.089Z,27.10
2018-07-20T07:13:42.298Z,27.10
2018-07-20T07:16:10.749Z,27.20
2018-07-20T07:18:39.199Z,27.20
2018-07-20T07:21:07.655Z,27.20
2018-07-20T07:23:36.131Z,27.20
2018-07-20T07:26:04.549Z,27.20
2018-07-20T07:28:33.149Z,27.30
2018-07-20T07:31:01.650Z,27.30
2018-07-20T07:33:30.077Z,27.30
2018-07-20T07:35:58.500Z,27.30
2018-07-20T07:38:26.928Z,27.30
2018-07-20T07:40:55.357Z,27.30
2018-07-20T07:43:23.794Z,27.30
2018-07-20T07:45:52.229Z,27.40
2018-07-20T07:48:20.648Z,27.40
2018-07-20T07:50:49.059Z,27.30
2018-07-20T07:53:17.470Z,27.30
2018-07-20T07:55:45.886Z,27.40
2018-07-20T07:58:15.070Z,27.40
2018-07-20T08:00:44.529Z,27.40
2018-07-20T08:03:13.084Z,27.30
2018-07-20T08:05:42.166Z,27.30
2018-07-20T08:08:10.604Z,27.30
2018-07-20T08:10:39.038Z,27.30
2018-07-20T08:13:07.511Z,27.40
2018-07-20T08:15:36.009Z,27.30
2018-07-20T08:18:04.456Z,27.30
2018-07-20T08:20:32.901Z,27.30
2018-07-20T08:23:01.418Z,27.40
2018-07-20T08:25:29.820Z,27.30
2018-07-20T08:27:58.241Z,27.30
2018-07-20T08:30:26.675Z,27.30
2018-07-20T08:32:55.128Z,27.30
2018-07-20T08:35:23.561Z,27.30
2018-07-20T08:37:51.993Z,27.30
2018-07-20T08:40:20.432Z,27.30
2018-07-20T08:42:48.848Z,27.30
2018-07-20T08:45:17.286Z,27.30
2018-07-20T08:47:45.712Z,27.30
2018-07-20T08:50:15.354Z,27.30
2018-07-20T08:52:44.744Z,27.30
2018-07-20T08:55:14.211Z,27.30
2018-07-20T08:57:43.337Z,27.40
2018-07-20T09:00:12.424Z,27.40
2018-07-20T09:02:40.858Z,27.40
2018-07-20T09:05:09.344Z,27.40
2018-07-20T09:07:37.775Z,27.40
2018-07-20T09:10:06.209Z,27.40
2018-07-20T09:12:34.632Z,27.40
2018-07-20T09:15:03.060Z,27.40
2018-07-20T09:17:31.512Z,27.40
2018-07-20T09:20:00.082Z,27.40
2018-07-20T09:22:28.522Z,27.40
2018-07-20T09:24:56.955Z,27.40
2018-07-20T09:27:25.392Z,27.40
2018-07-20T09:29:53.858Z,27.40
2018-07-20T09:32:22.358Z,27.40
2018-07-20T09:34:50.981Z,27.40
2018-07-20T09:37:19.429Z,27.40
2018-07-20T09:39:47.859Z,27.40
2018-07-20T09:42:16.498Z,27.40
2018-07-20T09:44:44.950Z,27.40
2018-07-20T09:47:14.389Z,27.40
2018-07-20T09:49:43.892Z,27.40
2018-07-20T09:52:13.023Z,27.40
2018-07-20T09:54:42.212Z,27.40
2018-07-20T09:57:10.671Z,27.40
2018-07-20T09:59:39.174Z,27.40
2018-07-20T10:02:07.533Z,27.40
2018-07-20T10:04:36.002Z,27.40
2018-07-20T10:07:04.447Z,27.40
2018-07-20T10:09:32.600Z,27.50
2018-07-20T10:12:01.032Z,27.50
2018-07-20T10:14:29.450Z,27.50
2018-07-20T10:16:57.956Z,27.50
2018-07-20T10:19:26.412Z,27.50
2018-07-20T10:21:54.841Z,27.50
2018-07-20T10:24:23.269Z,27.50
2018-07-20T10:26:51.789Z,27.50
2018-07-20T10:29:20.465Z,27.50
2018-07-20T10:31:48.891Z,27.60
2018-07-20T10:34:17.321Z,27.50
2018-07-20T10:36:45.814Z,27.50
2018-07-20T10:39:14.284Z,27.60
2018-07-20T10:41:43.661Z,27.60
2018-07-20T10:44:13.013Z,27.60
2018-07-20T10:46:42.121Z,27.60
2018-07-20T10:49:10.535Z,27.60
2018-07-20T10:51:38.954Z,27.70
2018-07-20T10:54:07.393Z,27.60
2018-07-20T10:56:35.937Z,27.70
2018-07-20T10:59:04.373Z,27.80
2018-07-20T11:01:32.851Z,27.80
2018-07-20T11:04:01.254Z,27.80
2018-07-20T11:06:29.668Z,27.90
2018-07-20T11:08:58.077Z,28.00
2018-07-20T11:11:26.481Z,28.10
2018-07-20T11:13:55.189Z,28.20
2018-07-20T11:16:23.593Z,28.20
2018-07-20T11:18:52.010Z,28.20
2018-07-20T11:21:20.410Z,28.30
2018-07-20T11:23:48.855Z,28.30
2018-07-20T11:26:17.267Z,28.30
2018-07-20T11:28:45.675Z,28.30
2018-07-20T11:31:15.264Z,28.40
2018-07-20T11:33:44.385Z,28.40
2018-07-20T11:36:13.942Z,28.40
2018-07-20T11:38:42.975Z,28.40
2018-07-20T11:41:12.521Z,28.40
2018-07-20T11:43:40.933Z,28.50
2018-07-20T11:46:09.342Z,28.50
2018-07-20T11:48:37.761Z,28.50
2018-07-20T11:51:06.166Z,28.50
2018-07-20T11:53:34.589Z,28.60
2018-07-20T11:56:03.058Z,28.60
2018-07-20T11:58:31.499Z,28.60
2018-07-20T12:00:59.917Z,28.60
2018-07-20T12:03:28.326Z,28.60
2018-07-20T12:05:56.786Z,28.70
2018-07-20T12:08:25.216Z,28.70
2018-07-20T12:10:53.632Z,28.70
2018-07-20T12:13:22.065Z,28.70
2018-07-20T12:15:50.530Z,28.70
2018-07-20T12:18:18.945Z,28.70
2018-07-20T12:20:47.380Z,28.80
2018-07-20T12:23:15.830Z,28.80
2018-07-20T12:25:44.982Z,28.80
2018-07-20T12:28:14.484Z,28.80
2018-07-20T12:30:42.992Z,28.80
2018-07-20T12:33:12.287Z,28.80
2018-07-20T12:35:40.719Z,28.80
2018-07-20T12:38:09.149Z,28.80
2018-07-20T12:40:37.577Z,28.90
2018-07-20T12:43:05.990Z,28.90
2018-07-20T12:45:34.417Z,28.90
2018-07-20T12:48:02.845Z,28.90
2018-07-20T12:50:31.368Z,28.90
2018-07-20T12:52:59.763Z,28.90
2018-07-20T12:55:28.193Z,28.90
2018-07-20T12:57:56.620Z,28.90
2018-07-20T13:00:25.085Z,28.90
2018-07-20T13:02:53.638Z,29.00
2018-07-20T13:05:22.073Z,29.00
2018-07-20T13:07:50.525Z,29.00
2018-07-20T13:10:18.946Z,29.00
2018-07-20T13:12:47.387Z,29.00
2018-07-20T13:15:15.812Z,29.00
2018-07-20T13:17:44.373Z,29.00
2018-07-20T13:20:13.997Z,29.00
2018-07-20T13:22:43.022Z,29.00
2018-07-20T13:25:12.262Z,29.00
2018-07-20T13:27:40.705Z,29.00
2018-07-20T13:30:09.609Z,29.00
2018-07-20T13:32:38.190Z,29.00
2018-07-20T13:35:06.769Z,29.00
2018-07-20T13:37:35.300Z,29.00
2018-07-20T13:40:03.757Z,29.00
2018-07-20T13:42:32.215Z,29.00
2018-07-20T13:45:00.615Z,29.00
2018-07-20T13:47:29.110Z,29.00
2018-07-20T13:49:57.540Z,29.00
2018-07-20T13:52:25.972Z,29.00
2018-07-20T13:54:54.404Z,29.00
2018-07-20T13:57:22.848Z,29.00
2018-07-20T13:59:51.291Z,29.00
2018-07-20T14:02:19.721Z,29.00
2018-07-20T14:04:48.163Z,29.00
2018-07-20T14:07:16.612Z,29.10
2018-07-20T14:09:45.050Z,29.00
2018-07-20T14:12:14.591Z,29.00
2018-07-20T14:14:43.815Z,29.00
2018-07-20T14:17:12.487Z,29.00
2018-07-20T14:19:40.939Z,29.00
2018-07-20T14:22:09.776Z,29.00
2018-07-20T14:24:38.363Z,29.00
2018-07-20T14:27:07.130Z,29.00
2018-07-20T14:29:35.586Z,29.00
2018-07-20T14:32:06.234Z,29.00
2018-07-20T14:34:34.786Z,29.00
2018-07-20T14:37:03.411Z,29.10
2018-07-20T14:39:32.020Z,29.10
2018-07-20T14:44:25.906Z,29.10
2018-07-20T14:46:54.405Z,29.10
2018-07-20T14:49:23.556Z,29.10
2018-07-20T14:51:52.647Z,29.10
2018-07-20T14:54:24.392Z,29.10
2018-07-20T14:56:53.576Z,29.00
2018-07-20T14:59:22.821Z,29.10
2018-07-20T15:01:51.997Z,29.00
2018-07-20T15:04:21.372Z,29.00
2018-07-20T15:06:50.505Z,29.00
2018-07-20T15:09:19.782Z,29.00
2018-07-20T15:11:48.967Z,29.00
2018-07-20T15:14:17.903Z,29.00
2018-07-20T15:16:47.122Z,29.00
2018-07-20T15:19:16.168Z,29.00
2018-07-20T15:21:45.509Z,29.00
2018-07-20T15:24:15.707Z,29.00
2018-07-20T15:26:45.844Z,29.00
2018-07-20T15:29:16.432Z,29.00
2018-07-20T15:31:45.183Z,29.00
2018-07-20T15:34:15.298Z,29.00
2018-07-20T15:36:45.286Z,29.00
2018-07-20T15:39:15.245Z,29.00
2018-07-20T15:41:45.330Z,29.00
2018-07-20T15:44:15.143Z,29.00
2018-07-20T15:46:45.241Z,28.90
2018-07-20T15:49:15.448Z,28.90
2018-07-20T15:54:14.955Z,28.90
2018-07-20T15:56:45.019Z,28.90
2018-07-20T15:59:15.431Z,28.90
2018-07-20T16:01:45.591Z,28.90
2018-07-20T16:04:15.631Z,28.90
2018-07-20T16:06:45.896Z,28.90
2018-07-20T16:09:16.062Z,28.90
2018-07-20T16:11:45.895Z,28.90
2018-07-20T16:14:15.852Z,28.90
2018-07-20T16:16:46.061Z,28.90
2018-07-20T16:19:15.502Z,28.90
2018-07-20T16:21:45.682Z,28.90
2018-07-20T16:24:14.731Z,28.90
2018-07-20T16:26:44.196Z,28.80
2018-07-20T16:29:14.176Z,28.90
2018-07-20T16:31:45.215Z,28.80
2018-07-20T16:34:15.274Z,28.80
2018-07-20T16:36:45.310Z,28.80
2018-07-20T16:39:15.360Z,28.80
2018-07-20T16:41:44.936Z,28.80
2018-07-20T16:44:15.119Z,28.80
2018-07-20T16:46:44.486Z,28.80
2018-07-20T16:49:14.831Z,28.70
2018-07-20T16:51:44.716Z,28.70
2018-07-20T16:54:14.788Z,28.70
2018-07-20T16:56:45.313Z,28.60
2018-07-20T16:59:15.259Z,28.60
2018-07-20T17:01:44.598Z,28.60
2018-07-20T17:04:14.398Z,28.50
2018-07-20T17:06:45.548Z,28.40
2018-07-20T17:09:16.024Z,28.50
2018-07-20T17:11:46.188Z,28.40
2018-07-20T17:14:15.463Z,28.30
2018-07-20T17:16:46.040Z,28.30
2018-07-20T17:19:16.131Z,28.20
2018-07-20T17:21:45.358Z,28.20
2018-07-20T17:24:16.582Z,28.20
2018-07-20T17:26:45.086Z,28.10
2018-07-20T17:29:15.325Z,28.10
2018-07-20T17:31:45.729Z,28.10
2018-07-20T17:34:15.881Z,28.10
2018-07-20T17:36:46.331Z,28.10
2018-07-20T17:39:15.973Z,28.10
2018-07-20T17:41:46.535Z,28.10
2018-07-20T17:44:15.607Z,28.10
2018-07-20T17:46:46.013Z,28.00
2018-07-20T17:49:15.418Z,28.10
2018-07-20T17:51:46.044Z,28.00
2018-07-20T17:54:15.873Z,28.00
2018-07-20T17:56:45.298Z,28.00
2018-07-20T17:59:16.090Z,28.00
2018-07-20T18:01:45.856Z,28.00
2018-07-20T18:04:15.259Z,28.00
2018-07-20T18:06:45.249Z,28.00
2018-07-20T18:09:14.448Z,28.00
2018-07-20T18:11:43.956Z,27.90
2018-07-20T18:14:13.011Z,27.90
2018-07-20T18:16:45.180Z,27.90
2018-07-20T18:19:14.126Z,27.90
2018-07-20T18:21:43.037Z,27.90
2018-07-20T18:24:11.496Z,27.90
2018-07-20T18:26:40.174Z,27.90
2018-07-20T18:29:08.597Z,27.90
2018-07-20T18:31:37.037Z,27.90
2018-07-20T18:34:05.536Z,27.90
2018-07-20T18:36:33.951Z,27.90
2018-07-20T18:39:02.402Z,27.90
2018-07-20T18:41:31.103Z,27.80
2018-07-20T18:43:59.669Z,27.80
2018-07-20T18:46:28.098Z,27.80
2018-07-20T18:48:56.533Z,27.80
2018-07-20T18:51:24.972Z,27.80
2018-07-20T18:53:53.588Z,27.80
2018-07-20T18:56:22.044Z,27.80
2018-07-20T18:58:50.471Z,27.80
2018-07-20T19:01:18.923Z,27.80
2018-07-20T19:03:47.534Z,27.80
2018-07-20T19:06:16.014Z,27.70
2018-07-20T19:08:45.300Z,27.70
2018-07-20T19:11:14.667Z,27.70
2018-07-20T19:13:44.066Z,27.70
2018-07-20T19:16:13.752Z,27.70
2018-07-20T19:18:42.990Z,27.70
2018-07-20T19:21:12.315Z,27.70
2018-07-20T19:23:43.254Z,27.70
2018-07-20T19:26:13.471Z,27.70
2018-07-20T19:28:43.078Z,27.70
2018-07-20T19:31:12.984Z,27.70
2018-07-20T19:33:42.592Z,27.70
2018-07-20T19:36:12.135Z,27.70
2018-07-20T19:38:42.085Z,27.70
2018-07-20T19:41:12.346Z,27.60
2018-07-20T19:43:42.128Z,27.70
2018-07-20T19:46:11.258Z,27.60
2018-07-20T19:48:40.483Z,27.60
2018-07-20T19:51:10.180Z,27.60
2018-07-20T19:53:38.985Z,27.60
2018-07-20T19:56:07.796Z,27.60
2018-07-20T19:58:36.466Z,27.60
2018-07-20T20:01:05.117Z,27.60
2018-07-20T20:03:33.342Z,27.60
2018-07-20T20:06:02.626Z,27.50
2018-07-20T20:08:31.994Z,27.50
2018-07-20T20:11:01.334Z,27.50
2018-07-20T20:13:31.869Z,27.50
2018-07-20T20:16:00.821Z,27.50
2018-07-20T20:18:30.314Z,27.50
2018-07-20T20:20:59.526Z,27.50
2018-07-20T20:23:28.244Z,27.50
2018-07-20T20:25:57.534Z,27.50
2018-07-20T20:28:27.179Z,27.50
2018-07-20T20:30:56.895Z,27.50
2018-07-20T20:33:28.700Z,27.50
2018-07-20T20:35:57.851Z,27.40
2018-07-20T20:38:26.816Z,27.40
2018-07-20T20:40:55.892Z,27.50
2018-07-20T20:43:25.158Z,27.40
2018-07-20T20:46:16.320Z,27.40
2018-07-20T20:48:45.145Z,27.40
2018-07-20T20:51:13.684Z,27.40
2018-07-20T20:53:43.213Z,27.40
2018-07-20T20:56:12.091Z,27.40
2018-07-20T20:58:40.846Z,27.40
2018-07-20T21:01:09.342Z,27.30
2018-07-20T21:03:38.008Z,27.30
2018-07-20T21:06:06.673Z,27.30
2018-07-20T21:08:35.118Z,27.30
2018-07-20T21:11:04.192Z,27.30
2018-07-20T21:13:32.647Z,27.30
2018-07-20T21:16:01.073Z,27.30
2018-07-20T21:18:29.625Z,27.30
2018-07-20T21:20:58.245Z,27.30
2018-07-20T21:23:26.672Z,27.30
2018-07-20T21:25:55.095Z,27.30
2018-07-20T21:28:23.517Z,27.30
2018-07-20T21:30:51.931Z,27.30
2018-07-20T21:33:20.364Z,27.30
2018-07-20T21:35:48.789Z,27.30
2018-07-20T21:38:17.220Z,27.30
2018-07-20T21:40:45.706Z,27.30
2018-07-20T21:43:15.177Z,27.30
2018-07-20T21:45:44.384Z,27.30
2018-07-20T21:48:13.728Z,27.30
2018-07-20T21:50:42.971Z,27.30
2018-07-20T21:53:12.305Z,27.20
2018-07-20T21:55:40.752Z,27.20
2018-07-20T21:58:09.457Z,27.30
2018-07-20T22:00:37.878Z,27.20
2018-07-20T22:03:06.326Z,27.30
2018-07-20T22:05:34.751Z,27.20
2018-07-20T22:08:03.196Z,27.20
2018-07-20T22:10:31.684Z,27.30
2018-07-20T22:13:00.123Z,27.20
2018-07-20T22:15:28.569Z,27.20
2018-07-20T22:17:57.001Z,27.20
2018-07-20T22:20:25.434Z,27.20
2018-07-20T22:22:54.000Z,27.20
2018-07-20T22:25:22.442Z,27.20
2018-07-20T22:27:51.122Z,27.20
2018-07-20T22:30:19.582Z,27.20
2018-07-20T22:32:48.026Z,27.20
2018-07-20T22:35:16.471Z,27.20
2018-07-20T22:37:45.129Z,27.20
2018-07-20T22:40:13.630Z,27.20
2018-07-20T22:42:42.102Z,27.20
2018-07-20T22:45:10.566Z,27.20
2018-07-20T22:47:39.009Z,27.20
2018-07-20T22:50:07.674Z,27.20
2018-07-20T22:52:36.362Z,27.20
2018-07-20T22:55:04.793Z,27.10
2018-07-20T22:57:33.562Z,27.20
2018-07-20T23:00:01.992Z,27.20
2018-07-20T23:02:30.849Z,27.20
2018-07-20T23:04:59.294Z,27.10
2018-07-20T23:07:27.754Z,27.10
2018-07-20T23:09:56.136Z,27.10
2018-07-20T23:12:24.570Z,27.10
2018-07-20T23:14:52.992Z,27.20
2018-07-20T23:17:21.428Z,27.10
2018-07-20T23:19:49.967Z,27.10
2018-07-20T23:22:18.376Z,27.10
2018-07-20T23:24:46.799Z,27.10
2018-07-20T23:27:15.208Z,27.10
2018-07-20T23:29:44.583Z,27.10
2018-07-20T23:32:13.698Z,27.10
2018-07-20T23:34:43.625Z,27.10
2018-07-20T23:37:12.056Z,27.10
2018-07-20T23:39:40.494Z,27.10
2018-07-20T23:42:08.918Z,27.10
2018-07-20T23:44:37.351Z,27.10
2018-07-20T23:47:05.760Z,27.10
2018-07-20T23:49:34.320Z,27.10
2018-07-20T23:52:02.837Z,27.10
2018-07-20T23:54:31.262Z,27.10
2018-07-20T23:56:59.685Z,27.10
2018-07-20T23:59:28.105Z,27.00
